Time;durP1;ratioP1;P1;durP2;ratioP2;P2;SDS_P1;SDS_P2;PMS_P1;PMS_P2;Temp;Humidity;BMP_temperature;BMP_pressure;BME280_temperature;BME280_humidity;BME280_pressure;Samples;Min_cycle;Max_cycle;Signal;HPM_P1;HPM_P2
2023/12/05 00:01:12;;;;;;;21.10;13.52;;;;;;;2.02;100.00;99653.44;6168975;23;20009;-91
2023/12/05 00:03:42;;;;;;;22.50;13.17;;;;;;;2.02;100.00;99655.28;6191467;23;20063;-91
2023/12/05 00:06:18;;;;;;;22.20;13.20;;;;;;;2.04;100.00;99654.09;6191537;23;20244;-90
2023/12/05 00:08:47;;;;;;;20.90;12.73;;;;;;;2.04;100.00;99646.06;6144328;23;20044;-91
2023/12/05 00:11:25;;;;;;;23.40;13.35;;;;;;;2.04;100.00;99648.72;6191727;23;20106;-92
2023/12/05 00:13:50;;;;;;;23.02;13.65;;;;;;;2.07;100.00;99652.88;6192525;23;20408;-93
2023/12/05 00:16:20;;;;;;;22.70;13.27;;;;;;;2.06;100.00;99644.00;6191596;23;20004;-92
2023/12/05 00:18:49;;;;;;;23.58;13.52;;;;;;;2.08;100.00;99658.03;6191523;23;20008;-92
2023/12/05 00:21:21;;;;;;;22.05;13.48;;;;;;;2.09;100.00;99648.16;6167583;23;20009;-92
2023/12/05 00:23:47;;;;;;;25.93;13.97;;;;;;;2.08;100.00;99644.66;6192075;23;20358;-92
2023/12/05 00:26:23;;;;;;;22.63;13.32;;;;;;;2.06;100.00;99641.34;6191932;23;20231;-92
2023/12/05 00:29:15;;;;;;;24.10;14.27;;;;;;;2.16;100.00;99654.41;6167096;23;20427;-92
2023/12/05 00:31:46;;;;;;;22.57;13.20;;;;;;;2.09;100.00;99640.13;6184403;23;20004;-92
2023/12/05 00:37:41;;;;;;;23.63;13.23;;;;;;;2.19;100.00;99642.50;6218011;23;20003;-92
2023/12/05 00:40:08;;;;;;;25.23;14.15;;;;;;;2.16;100.00;99642.88;6140973;23;20012;-93
2023/12/05 00:42:48;;;;;;;22.85;14.13;;;;;;;2.15;100.00;99647.41;6192031;23;20005;-92
2023/12/05 00:45:42;;;;;;;21.53;12.40;;;;;;;2.17;100.00;99641.84;6192957;23;20001;-92
2023/12/05 00:48:23;;;;;;;23.52;13.45;;;;;;;2.18;100.00;99641.66;6193754;23;20008;-92
2023/12/05 00:51:17;;;;;;;22.65;13.65;;;;;;;2.15;100.00;99630.53;6227336;23;20015;-92
2023/12/05 00:53:47;;;;;;;23.15;13.23;;;;;;;2.15;100.00;99627.84;6236060;23;20462;-92
2023/12/05 00:56:24;;;;;;;23.35;13.57;;;;;;;2.20;100.00;99626.25;6232674;23;20008;-92
2023/12/05 00:59:15;;;;;;;25.07;14.07;;;;;;;2.21;100.00;99637.78;6222148;23;20004;-92
2023/12/05 01:01:43;;;;;;;23.02;13.50;;;;;;;2.18;100.00;99638.97;6221976;23;20004;-92
2023/12/05 01:04:20;;;;;;;22.88;13.90;;;;;;;2.20;100.00;99634.28;6222705;23;20030;-92
2023/12/05 01:07:07;;;;;;;23.30;13.52;;;;;;;2.20;100.00;99634.28;6221719;23;20005;-92
2023/12/05 01:09:42;;;;;;;24.98;13.25;;;;;;;2.22;100.00;99628.75;6198459;23;20044;-92
2023/12/05 01:12:14;;;;;;;23.97;13.87;;;;;;;2.22;100.00;99626.06;6222347;23;20058;-92
2023/12/05 01:14:50;;;;;;;24.55;14.38;;;;;;;2.22;100.00;99639.44;6221010;23;20012;-92
2023/12/05 01:17:23;;;;;;;24.20;14.10;;;;;;;2.25;100.00;99636.38;6198444;23;20061;-92
2023/12/05 01:20:11;;;;;;;25.52;14.73;;;;;;;2.24;100.00;99624.00;6196452;23;20057;-92
2023/12/05 01:22:55;;;;;;;;;;;;;;;;;;;;;
2023/12/05 01:25:21;;;;;;;27.57;14.90;;;;;;;2.25;100.00;99621.16;6224843;23;20079;-91
2023/12/05 01:27:49;;;;;;;23.05;13.43;;;;;;;2.27;100.00;99624.47;6221253;23;20465;-91
2023/12/05 01:30:18;;;;;;;24.03;14.03;;;;;;;2.25;100.00;99615.78;6220637;23;20008;-92
2023/12/05 01:32:43;;;;;;;23.25;13.65;;;;;;;2.36;100.00;99629.69;6221639;23;20326;-92
2023/12/05 01:35:21;;;;;;;22.45;13.52;;;;;;;2.30;100.00;99620.56;6221246;23;20479;-91
2023/12/05 01:38:22;;;;;;;;;;;;;;;;;;;;;
2023/12/05 01:41:08;;;;;;;25.08;13.93;;;;;;;2.33;100.00;99627.41;6239597;23;20329;-92
2023/12/05 01:43:44;;;;;;;22.35;13.77;;;;;;;2.34;100.00;99611.16;6198386;23;20020;-92
2023/12/05 01:46:15;;;;;;;25.25;14.27;;;;;;;2.39;100.00;99626.63;6221120;23;20012;-91
2023/12/05 01:48:50;;;;;;;23.65;14.05;;;;;;;2.39;100.00;99618.59;6220342;23;20096;-92
2023/12/05 01:51:34;;;;;;;;;;;;;;;;;;;;;
2023/12/05 01:54:11;;;;;;;23.98;13.40;;;;;;;2.39;100.00;99626.63;6223309;23;20796;-92
2023/12/05 01:57:06;;;;;;;;;;;;;;;;;;;;;
2023/12/05 01:59:36;;;;;;;25.77;14.18;;;;;;;2.39;100.00;99626.63;6227276;23;20502;-91
2023/12/05 02:02:09;;;;;;;26.20;14.55;;;;;;;2.44;100.00;99634.94;6195618;23;20019;-92
2023/12/05 02:04:37;;;;;;;24.63;15.10;;;;;;;2.42;100.00;99631.59;6219951;23;20445;-92
2023/12/05 02:07:04;;;;;;;23.48;13.55;;;;;;;2.40;100.00;99636.31;6220690;23;20259;-92
2023/12/05 02:09:33;;;;;;;25.45;13.75;;;;;;;2.43;100.00;99642.09;6220489;23;20004;-91
2023/12/05 02:15:03;;;;;;;26.15;14.35;;;;;;;2.46;100.00;99640.91;6225721;23;20040;-92
2023/12/05 02:17:47;;;;;;;25.60;14.30;;;;;;;2.49;100.00;99635.16;6195957;23;20044;-91
2023/12/05 02:20:50;;;;;;;23.80;14.63;;;;;;;2.49;100.00;99637.84;6220602;23;20259;-92
2023/12/05 02:23:38;;;;;;;25.20;14.10;;;;;;;2.48;100.00;99635.34;6100393;23;20093;-91
2023/12/05 02:26:27;;;;;;;24.05;14.07;;;;;;;2.54;100.00;99637.25;6135292;23;20004;-92
2023/12/05 02:28:58;;;;;;;23.77;13.27;;;;;;;2.51;100.00;99634.97;6161603;23;20011;-92
2023/12/05 02:31:33;;;;;;;25.27;14.77;;;;;;;2.51;100.00;99633.13;6221881;23;20453;-92
2023/12/05 02:33:59;;;;;;;27.13;15.82;;;;;;;2.53;100.00;99635.63;6223239;23;20246;-92
2023/12/05 02:36:39;;;;;;;25.13;15.15;;;;;;;2.50;100.00;99630.66;6226811;23;20020;-91
2023/12/05 02:39:19;;;;;;;26.27;15.10;;;;;;;2.52;100.00;99631.28;6225149;23;20008;-92
2023/12/05 02:42:19;;;;;;;;;;;;;;;;;;;;;
2023/12/05 02:44:51;;;;;;;26.38;14.68;;;;;;;2.48;100.00;99625.50;6248437;23;20067;-92
2023/12/05 02:47:32;;;;;;;26.05;15.20;;;;;;;2.53;100.00;99624.91;6194700;23;20090;-92
2023/12/05 02:50:03;;;;;;;27.48;15.60;;;;;;;2.52;100.00;99632.09;6218918;23;20012;-91
2023/12/05 02:52:29;;;;;;;26.70;15.85;;;;;;;2.55;100.00;99628.22;6220435;23;20008;-91
2023/12/05 02:55:00;;;;;;;25.90;14.93;;;;;;;2.57;100.00;99628.84;6219940;23;20147;-91
2023/12/05 02:57:30;;;;;;;27.30;15.80;;;;;;;2.59;100.00;99626.81;6220065;23;20013;-91
2023/12/05 03:00:05;;;;;;;30.35;16.67;;;;;;;2.56;100.00;99621.84;6171673;23;20016;-91
2023/12/05 03:02:38;;;;;;;27.17;15.93;;;;;;;2.60;100.00;99625.81;6197036;23;20008;-91
2023/12/05 03:05:14;;;;;;;27.05;15.30;;;;;;;2.57;100.00;99618.97;6221328;23;20004;-91
2023/12/05 03:07:51;;;;;;;25.90;15.88;;;;;;;2.59;100.00;99616.91;6197051;23;20450;-91
2023/12/05 03:10:26;;;;;;;;;;;;;;;;;;;;;
2023/12/05 03:13:23;;;;;;;;;;;;;;;;;;;;;
2023/12/05 03:15:54;;;;;;;28.20;15.87;;;;;;;2.60;100.00;99607.88;6249578;23;20095;-90
2023/12/05 03:18:20;;;;;;;28.17;15.68;;;;;;;2.61;100.00;99604.19;6222881;23;20078;-91
2023/12/05 03:20:48;;;;;;;27.83;15.93;;;;;;;2.59;100.00;99605.38;6221837;23;20051;-91
2023/12/05 03:23:59;;;;;;;26.80;16.00;;;;;;;2.61;100.00;99608.69;6221735;23;20023;-92
2023/12/05 03:26:34;;;;;;;28.48;15.45;;;;;;;2.65;100.00;99603.78;6183621;23;20279;-92
2023/12/05 03:29:11;;;;;;;28.48;16.38;;;;;;;2.67;100.00;99610.59;6222108;23;20012;-91
2023/12/05 03:31:49;;;;;;;28.35;15.60;;;;;;;2.65;100.00;99615.31;6248786;23;20091;-91
2023/12/05 03:34:17;;;;;;;29.17;16.27;;;;;;;2.68;100.00;99611.44;6198957;23;20004;-92
2023/12/05 03:36:54;;;;;;;26.70;15.90;;;;;;;2.68;100.00;99614.09;6172991;23;20107;-91
2023/12/05 03:39:22;;;;;;;26.70;15.63;;;;;;;2.68;100.00;99614.09;6197690;23;20570;-92
2023/12/05 03:42:13;;;;;;;30.98;18.25;;;;;;;2.70;100.00;99630.81;6221769;23;20010;-92
2023/12/05 03:44:55;;;;;;;29.67;17.80;;;;;;;2.65;100.00;99625.22;6179380;23;20016;-92
2023/12/05 03:47:30;;;;;;;31.13;17.73;;;;;;;2.69;100.00;99626.47;6198684;23;20016;-91
2023/12/05 03:49:58;;;;;;;28.80;17.50;;;;;;;2.69;100.00;99624.63;6221746;23;20016;-91
2023/12/05 03:52:26;;;;;;;27.92;16.52;;;;;;;2.74;100.00;99630.22;6221724;23;20239;-91
2023/12/05 03:55:00;;;;;;;33.28;17.88;;;;;;;2.75;100.00;99634.56;6221442;23;20012;-91
2023/12/05 03:57:31;;;;;;;30.48;17.48;;;;;;;2.76;100.00;99627.34;6221622;23;20007;-91
2023/12/05 04:00:12;;;;;;;30.98;17.92;;;;;;;2.81;100.00;99636.47;6198042;23;20008;-91
2023/12/05 04:02:44;;;;;;;32.17;17.93;;;;;;;2.76;100.00;99625.50;6197289;23;20031;-91
2023/12/05 04:05:17;;;;;;;29.67;17.75;;;;;;;2.81;100.00;99641.81;6225186;23;20253;-92
2023/12/05 04:07:47;;;;;;;31.45;17.25;;;;;;;2.82;100.00;99648.03;6198148;23;20066;-91
2023/12/05 04:10:16;;;;;;;31.45;18.00;;;;;;;2.75;100.00;99642.59;6223143;23;20091;-90
2023/12/05 04:12:43;;;;;;;32.15;18.73;;;;;;;2.77;100.00;99645.91;6224493;23;20138;-90
2023/12/05 04:15:14;;;;;;;27.50;16.47;;;;;;;2.84;100.00;99659.34;6198337;23;20008;-90
2023/12/05 04:17:42;;;;;;;29.55;16.83;;;;;;;2.81;100.00;99654.41;6199664;23;20292;-90
2023/12/05 04:20:10;;;;;;;29.40;17.67;;;;;;;2.90;100.00;99657.75;6199261;23;20012;-90
2023/12/05 04:22:41;;;;;;;29.90;17.25;;;;;;;2.87;100.00;99653.63;6225110;23;20011;-91
2023/12/05 04:25:27;;;;;;;29.10;17.00;;;;;;;2.88;100.00;99654.44;6222241;23;20062;-90
2023/12/05 04:27:55;;;;;;;32.47;18.00;;;;;;;2.92;100.00;99658.38;6220784;23;20008;-90
2023/12/05 04:30:23;;;;;;;31.85;17.95;;;;;;;2.89;100.00;99656.09;6220965;23;20239;-89
2023/12/05 04:32:59;;;;;;;28.83;17.27;;;;;;;2.88;100.00;99659.78;6220453;23;20008;-90
2023/12/05 04:35:42;;;;;;;30.55;18.15;;;;;;;2.89;100.00;99648.88;6220990;23;20142;-90
2023/12/05 04:38:16;;;;;;;31.20;17.77;;;;;;;2.90;100.00;99655.09;6196123;23;20019;-90
2023/12/05 04:40:45;;;;;;;32.77;18.97;;;;;;;2.90;100.00;99666.63;6221297;23;20418;-90
2023/12/05 04:43:11;;;;;;;33.13;18.83;;;;;;;2.98;100.00;99673.69;6220799;23;20278;-90
2023/12/05 04:45:40;;;;;;;28.67;17.65;;;;;;;2.94;100.00;99672.44;6220883;23;20012;-90
2023/12/05 04:48:14;;;;;;;32.55;18.38;;;;;;;2.96;100.00;99675.75;6220720;23;20012;-90
2023/12/05 04:50:43;;;;;;;29.37;17.27;;;;;;;2.92;100.00;99663.75;6195740;23;20040;-90
2023/12/05 04:53:14;;;;;;;30.98;18.23;;;;;;;2.97;100.00;99675.53;6220766;23;20023;-90
2023/12/05 04:55:40;;;;;;;32.92;18.98;;;;;;;2.97;100.00;99677.41;6221053;23;20008;-90
2023/12/05 04:58:05;;;;;;;33.50;18.77;;;;;;;3.01;100.00;99688.53;6195519;23;20019;-90
2023/12/05 05:00:31;;;;;;;29.77;17.67;;;;;;;2.98;100.00;99673.69;6196207;23;20030;-89
2023/12/05 05:02:57;;;;;;;32.53;19.00;;;;;;;2.99;100.00;99672.66;6221105;23;20008;-90
2023/12/05 05:05:32;;;;;;;33.20;19.35;;;;;;;2.97;100.00;99672.84;6220467;23;20279;-90
2023/12/05 05:08:03;;;;;;;34.63;18.83;;;;;;;3.00;100.00;99679.69;6220586;23;20012;-90
2023/12/05 05:10:38;;;;;;;35.10;19.23;;;;;;;3.05;100.00;99693.31;6220193;23;20015;-90
2023/12/05 05:13:06;;;;;;;31.38;18.83;;;;;;;3.01;100.00;99680.50;6221247;23;20303;-89
2023/12/05 05:15:52;;;;;;;33.90;18.48;;;;;;;3.09;100.00;99694.59;6195314;23;20016;-89
2023/12/05 05:18:17;;;;;;;33.15;18.13;;;;;;;3.05;100.00;99684.47;6171340;23;20012;-90
2023/12/05 05:20:56;;;;;;;32.70;18.53;;;;;;;3.07;100.00;99699.34;6247620;23;20004;-90
2023/12/05 05:23:25;;;;;;;28.85;17.20;;;;;;;3.04;100.00;99690.84;6197125;23;20050;-90
2023/12/05 05:25:55;;;;;;;30.13;17.35;;;;;;;3.08;100.00;99700.97;6218794;23;20046;-89
2023/12/05 05:28:28;;;;;;;31.30;18.50;;;;;;;3.03;100.00;99690.00;6221566;23;20008;-90
2023/12/05 05:31:04;;;;;;;31.93;17.57;;;;;;;3.02;100.00;99690.22;6221465;23;20373;-89
2023/12/05 05:33:32;;;;;;;31.25;17.73;;;;;;;3.06;100.00;99691.50;6221888;23;20562;-90
2023/12/05 05:35:59;;;;;;;30.63;17.50;;;;;;;3.03;100.00;99692.69;6220168;23;20015;-90
2023/12/05 05:38:28;;;;;;;32.03;18.13;;;;;;;3.05;100.00;99700.53;6195589;23;20019;-90
2023/12/05 05:41:06;;;;;;;32.33;17.92;;;;;;;3.06;100.00;99708.38;6221283;23;20432;-90
2023/12/05 05:43:47;;;;;;;31.73;17.60;;;;;;;3.03;100.00;99689.16;6220986;23;20456;-89
2023/12/05 05:46:49;;;;;;;;;;;;;;;;;;;;;
2023/12/05 05:49:25;;;;;;;30.63;17.88;;;;;;;3.13;100.00;99711.09;6248450;23;20385;-90
2023/12/05 05:52:09;;;;;;;;;;;;;;;;;;;;;
2023/12/05 05:54:35;;;;;;;31.17;17.08;;;;;;;3.13;100.00;99706.59;6246897;23;20083;-90
2023/12/05 05:57:01;;;;;;;32.87;18.00;;;;;;;3.08;100.00;99703.66;6220254;23;20023;-90
2023/12/05 05:59:31;;;;;;;29.48;17.00;;;;;;;3.12;100.00;99709.47;6220222;23;20055;-90
2023/12/05 06:02:07;;;;;;;31.48;17.20;;;;;;;3.11;100.00;99708.63;6197044;23;20016;-90
2023/12/05 06:04:41;;;;;;;29.97;17.10;;;;;;;3.14;100.00;99710.94;6223777;23;20004;-90
2023/12/05 06:07:19;;;;;;;30.00;17.50;;;;;;;3.13;100.00;99713.78;6220151;23;20035;-90
2023/12/05 06:09:53;;;;;;;30.80;17.95;;;;;;;3.10;100.00;99706.97;6220180;23;20080;-90
2023/12/05 06:12:23;;;;;;;29.95;16.00;;;;;;;3.16;100.00;99718.78;6219793;23;20004;-90
2023/12/05 06:14:59;;;;;;;29.77;16.33;;;;;;;3.14;100.00;99702.91;6219850;23;20040;-89
2023/12/05 06:17:44;;;;;;;28.80;16.43;;;;;;;3.15;100.00;99704.53;6220240;23;20008;-89
2023/12/05 06:20:10;;;;;;;33.55;18.00;;;;;;;3.15;100.00;99712.56;6219815;23;20012;-89
2023/12/05 06:22:45;;;;;;;31.45;16.60;;;;;;;3.13;100.00;99708.41;6219487;23;20491;-90
2023/12/05 06:25:23;;;;;;;31.83;17.00;;;;;;;3.19;100.00;99723.75;6220222;23;20038;-89
2023/12/05 06:27:51;;;;;;;26.58;15.38;;;;;;;3.20;100.00;99722.69;6220215;23;20004;-89
2023/12/05 06:30:22;;;;;;;31.38;16.65;;;;;;;3.25;100.00;99740.88;6219777;23;20307;-90
2023/12/05 06:32:50;;;;;;;30.98;16.75;;;;;;;3.17;100.00;99731.13;6195400;23;20012;-87
2023/12/05 06:35:16;;;;;;;30.63;17.02;;;;;;;3.20;100.00;99730.75;6219634;23;20024;-87
2023/12/05 06:37:44;;;;;;;30.50;17.57;;;;;;;3.20;100.00;99736.09;6220557;23;20012;-88
2023/12/05 06:40:10;;;;;;;30.95;16.90;;;;;;;3.23;100.00;99746.44;6219370;23;20004;-88
2023/12/05 06:42:46;;;;;;;31.10;17.03;;;;;;;3.22;100.00;99746.63;6246744;23;20050;-88
2023/12/05 06:45:15;;;;;;;33.65;16.83;;;;;;;3.23;100.00;99742.94;6220470;23;20247;-89
2023/12/05 06:47:45;;;;;;;31.75;16.65;;;;;;;3.28;100.00;99748.56;6219756;23;20008;-89
2023/12/05 06:50:15;;;;;;;30.55;16.90;;;;;;;3.26;100.00;99739.88;6194158;23;20042;-89
2023/12/05 06:52:51;;;;;;;29.73;16.85;;;;;;;3.27;100.00;99742.34;6195652;23;20062;-90
2023/12/05 06:55:28;;;;;;;33.38;17.60;;;;;;;3.27;100.00;99750.41;6219954;23;20004;-90
2023/12/05 06:58:11;;;;;;;34.13;16.48;;;;;;;3.33;100.00;99762.19;6196443;23;20012;-89
2023/12/05 07:00:39;;;;;;;32.20;17.55;;;;;;;3.37;100.00;99771.53;6220215;23;20488;-87
2023/12/05 07:03:15;;;;;;;32.55;17.25;;;;;;;3.29;100.00;99758.25;6194236;23;20115;-87
2023/12/05 07:05:41;;;;;;;33.08;17.17;;;;;;;3.36;100.00;99763.66;6219163;23;20158;-88
2023/12/05 07:08:09;;;;;;;33.23;17.17;;;;;;;3.32;100.00;99765.91;6218560;23;20008;-91
2023/12/05 07:10:37;;;;;;;34.42;17.38;;;;;;;3.40;100.00;99783.72;6246187;23;20030;-90
2023/12/05 07:13:03;;;;;;;32.35;16.90;;;;;;;3.35;100.00;99768.19;6218883;23;20000;-86
2023/12/05 07:15:31;;;;;;;35.00;17.07;;;;;;;3.38;100.00;99781.22;6218270;23;20012;-88
2023/12/05 07:18:01;;;;;;;32.85;17.40;;;;;;;3.42;100.00;99790.53;6218777;23;20008;-87
2023/12/05 07:20:29;;;;;;;32.55;16.60;;;;;;;3.38;100.00;99783.06;6220637;23;20088;-87
2023/12/05 07:23:00;;;;;;;32.57;17.17;;;;;;;3.37;100.00;99787.59;6245997;23;20418;-87
2023/12/05 07:25:29;;;;;;;32.70;16.48;;;;;;;3.38;100.00;99793.78;6219865;23;20333;-88
2023/12/05 07:27:56;;;;;;;31.52;16.65;;;;;;;3.37;100.00;99792.16;6245949;23;20016;-87
2023/12/05 07:30:22;;;;;;;30.70;15.75;;;;;;;3.36;100.00;99795.84;6220073;23;20019;-87
2023/12/05 07:32:48;;;;;;;32.50;16.27;;;;;;;3.36;100.00;99801.22;6218852;23;20008;-87
2023/12/05 07:35:14;;;;;;;30.03;16.20;;;;;;;3.35;100.00;99805.72;6218468;23;20007;-87
2023/12/05 07:37:46;;;;;;;31.47;16.77;;;;;;;3.32;100.00;99806.13;6246926;23;20050;-87
2023/12/05 07:40:15;;;;;;;33.83;16.80;;;;;;;3.30;100.00;99811.66;6219896;23;20705;-86
2023/12/05 07:42:44;;;;;;;34.63;18.00;;;;;;;3.30;100.00;99810.84;6219169;23;20008;-87
2023/12/05 07:45:10;;;;;;;35.50;16.77;;;;;;;3.30;100.00;99813.53;6246165;23;20441;-87
2023/12/05 07:47:35;;;;;;;33.75;17.05;;;;;;;3.30;100.00;99827.75;6219082;23;20004;-87
2023/12/05 07:50:05;;;;;;;34.50;17.27;;;;;;;3.33;100.00;99835.41;6219381;23;20427;-87
2023/12/05 07:52:30;;;;;;;33.97;17.08;;;;;;;3.32;100.00;99836.47;6195752;23;20012;-86
2023/12/05 07:54:56;;;;;;;32.77;16.70;;;;;;;3.31;100.00;99844.69;6221061;23;20008;-87
2023/12/05 07:57:24;;;;;;;31.13;15.88;;;;;;;3.28;100.00;99845.09;6247748;23;20353;-87
2023/12/05 07:59:50;;;;;;;33.00;16.73;;;;;;;3.28;100.00;99847.75;6222283;23;20004;-87
2023/12/05 08:02:27;;;;;;;34.80;17.07;;;;;;;3.30;100.00;99856.44;6221428;23;20046;-87
2023/12/05 08:05:08;;;;;;;32.50;16.30;;;;;;;3.28;100.00;99853.13;6220991;23;20004;-87
2023/12/05 08:07:42;;;;;;;33.13;16.35;;;;;;;3.28;100.00;99864.66;6222183;23;20075;-87
2023/12/05 08:10:11;;;;;;;32.60;17.10;;;;;;;3.25;100.00;99861.53;6222174;23;20374;-87
2023/12/05 08:12:45;;;;;;;35.25;17.40;;;;;;;3.24;100.00;99863.38;6196180;23;20066;-87
2023/12/05 08:15:12;;;;;;;35.80;18.03;;;;;;;3.27;100.00;99873.72;6221748;23;20027;-86
2023/12/05 08:17:53;;;;;;;;;;;;;;;;;;;;;
2023/12/05 08:20:24;;;;;;;41.88;17.80;;;;;;;3.21;100.00;99866.44;6248766;23;20087;-87
2023/12/05 08:22:54;;;;;;;40.65;19.48;;;;;;;3.19;100.00;99873.00;6196160;23;20061;-87
2023/12/05 08:25:20;;;;;;;35.75;18.33;;;;;;;3.23;100.00;99893.06;6196082;23;20024;-87
2023/12/05 08:27:45;;;;;;;37.53;17.40;;;;;;;3.24;100.00;99892.88;6220436;23;20008;-87
2023/12/05 08:33:00;;;;;;;36.42;16.48;;;;;;;3.15;100.00;99897.53;6247929;23;20234;-87
2023/12/05 08:35:30;;;;;;;34.15;16.30;;;;;;;3.16;100.00;99896.50;6220380;23;20009;-87
2023/12/05 08:38:03;;;;;;;34.28;16.83;;;;;;;3.15;100.00;99900.22;6247911;23;20011;-87
2023/12/05 08:40:34;;;;;;;32.25;16.65;;;;;;;3.21;100.00;99903.97;6197067;23;20015;-87
2023/12/05 08:43:10;;;;;;;37.07;17.93;;;;;;;3.19;100.00;99906.03;6220252;23;20012;-87
2023/12/05 08:45:41;;;;;;;36.13;17.35;;;;;;;3.19;100.00;99907.88;6221846;23;20247;-87
2023/12/05 08:48:12;;;;;;;35.60;17.02;;;;;;;3.20;100.00;99899.63;6247869;23;20000;-86
2023/12/05 08:50:37;;;;;;;36.55;16.95;;;;;;;3.17;100.00;99910.75;6220639;23;20454;-87
2023/12/05 08:53:13;;;;;;;37.63;17.63;;;;;;;3.17;100.00;99908.06;6220666;23;20011;-86
2023/12/05 08:55:41;;;;;;;36.33;17.73;;;;;;;3.21;100.00;99914.69;6195714;23;20004;-87
2023/12/05 08:58:09;;;;;;;35.03;17.98;;;;;;;3.21;100.00;99914.69;6221103;23;20078;-87
2023/12/05 09:00:35;;;;;;;34.40;17.30;;;;;;;3.26;100.00;99912.31;6221296;23;20406;-87
2023/12/05 09:03:14;;;;;;;39.83;18.20;;;;;;;3.24;100.00;99918.88;6220985;23;20014;-87
2023/12/05 09:05:44;;;;;;;34.38;17.27;;;;;;;3.26;100.00;99917.66;6220123;23;20008;-87
2023/12/05 09:08:11;;;;;;;36.15;17.42;;;;;;;3.26;100.00;99922.19;6248119;23;20008;-87
2023/12/05 09:10:41;;;;;;;35.63;17.97;;;;;;;3.29;100.00;99929.84;6196030;23;20098;-87
2023/12/05 09:13:09;;;;;;;36.38;16.85;;;;;;;3.25;100.00;99929.41;6196979;23;20012;-87
2023/12/05 09:15:44;;;;;;;35.17;16.52;;;;;;;3.25;100.00;99933.91;6220396;23;20418;-86
2023/12/05 09:18:13;;;;;;;35.22;16.98;;;;;;;3.26;100.00;99939.09;6247756;23;20089;-87
2023/12/05 09:20:49;;;;;;;35.65;16.95;;;;;;;3.32;100.00;99949.06;6247134;23;20066;-87
2023/12/05 09:23:14;;;;;;;35.17;17.13;;;;;;;3.38;100.00;99947.47;6221176;23;20014;-87
2023/12/05 09:25:42;;;;;;;35.78;16.95;;;;;;;3.46;100.00;99952.72;6247307;23;20074;-87
2023/12/05 09:28:12;;;;;;;34.93;17.10;;;;;;;3.46;100.00;99947.34;6196424;23;20439;-87
2023/12/05 09:30:44;;;;;;;36.53;17.40;;;;;;;3.53;100.00;99957.31;6247127;23;20004;-87
2023/12/05 09:33:21;;;;;;;34.50;17.45;;;;;;;3.45;100.00;99950.22;6219437;23;20322;-88
2023/12/05 09:35:49;;;;;;;39.30;17.40;;;;;;;3.50;100.00;99955.84;6197345;23;20007;-86
2023/12/05 09:38:18;;;;;;;34.95;17.17;;;;;;;3.51;100.00;99973.59;6220429;23;20023;-87
2023/12/05 09:40:44;;;;;;;40.80;17.13;;;;;;;3.50;100.00;99988.03;6246837;23;20078;-87
2023/12/05 09:43:12;;;;;;;38.08;15.68;;;;;;;3.42;100.00;99977.41;6219924;23;20020;-87
2023/12/05 09:45:45;;;;;;;30.48;16.20;;;;;;;3.38;100.00;99973.44;6219999;23;20000;-87
2023/12/05 09:48:11;;;;;;;35.53;16.10;;;;;;;3.40;100.00;99982.16;6220924;23;20014;-87
2023/12/05 09:53:44;;;;;;;34.47;15.47;;;;;;;3.30;100.00;99983.25;6226400;23;20008;-87
2023/12/05 09:56:28;;;;;;;33.20;16.58;;;;;;;3.34;100.00;99981.06;6219758;23;20042;-87
2023/12/05 09:59:24;;;;;;;34.63;15.52;;;;;;;3.42;100.00;99988.97;6220669;23;20469;-87
2023/12/05 10:02:01;;;;;;;34.70;15.80;;;;;;;3.46;100.00;99984.88;6220139;23;20004;-87
2023/12/05 10:04:35;;;;;;;36.90;15.90;;;;;;;3.46;100.00;99989.44;6246614;23;20004;-87
2023/12/05 10:07:12;;;;;;;33.57;15.47;;;;;;;3.48;100.00;99998.09;6219774;23;20011;-87
2023/12/05 10:09:45;;;;;;;35.90;15.80;;;;;;;3.49;100.00;100002.47;6219794;23;20008;-87
2023/12/05 10:12:11;;;;;;;33.92;15.48;;;;;;;3.47;100.00;100009.84;6219851;23;20015;-87
2023/12/05 10:14:47;;;;;;;31.55;15.48;;;;;;;3.51;100.00;100021.88;6219570;23;20004;-87
2023/12/05 10:17:17;;;;;;;35.13;15.93;;;;;;;3.47;100.00;100018.75;6172729;23;20012;-87
2023/12/05 10:19:52;;;;;;;37.83;15.70;;;;;;;3.50;100.00;100017.53;6220181;23;20073;-87
2023/12/05 10:22:22;;;;;;;36.50;15.95;;;;;;;3.46;100.00;100018.94;6195690;23;20429;-87
2023/12/05 10:24:53;;;;;;;35.40;15.88;;;;;;;3.46;100.00;100032.34;6246237;23;20083;-87
2023/12/05 10:27:21;;;;;;;35.05;16.33;;;;;;;3.37;100.00;100026.25;6245048;23;20018;-87
2023/12/05 10:29:58;;;;;;;34.63;16.58;;;;;;;3.32;100.00;100024.16;6220648;23;20008;-87
2023/12/05 10:32:46;;;;;;;36.80;16.77;;;;;;;3.34;100.00;100023.97;6246310;23;20018;-87
2023/12/05 10:35:12;;;;;;;35.13;16.30;;;;;;;3.44;100.00;100029.84;6198047;23;20146;-87
2023/12/05 10:37:40;;;;;;;36.42;17.55;;;;;;;3.47;100.00;100037.53;6219554;23;20012;-89
2023/12/05 10:40:08;;;;;;;39.70;17.47;;;;;;;3.47;100.00;100050.06;6219302;23;20012;-87
2023/12/05 10:42:35;;;;;;;35.90;16.60;;;;;;;3.37;100.00;100039.66;6195140;23;20015;-87
2023/12/05 10:45:07;;;;;;;31.50;16.10;;;;;;;3.38;100.00;100041.34;6220073;23;20099;-87
2023/12/05 10:47:35;;;;;;;33.78;15.93;;;;;;;3.35;100.00;100041.69;6218486;23;20012;-87
2023/12/05 10:50:06;;;;;;;28.38;14.60;;;;;;;3.39;100.00;100058.25;6245868;23;20039;-87
2023/12/05 10:52:35;;;;;;;27.90;14.20;;;;;;;3.29;100.00;100045.13;6194337;23;20020;-87
2023/12/05 10:55:03;;;;;;;23.75;12.23;;;;;;;3.27;100.00;100055.22;6218889;23;20008;-87
2023/12/05 10:57:33;;;;;;;24.13;12.60;;;;;;;3.30;100.00;100063.72;6245910;23;20004;-87
2023/12/05 10:59:59;;;;;;;22.63;11.63;;;;;;;3.27;100.00;100061.41;6246164;23;20481;-87
2023/12/05 11:02:27;;;;;;;21.57;11.13;;;;;;;3.22;100.00;100052.25;6219609;23;20004;-87
2023/12/05 11:04:55;;;;;;;20.08;10.82;;;;;;;3.32;100.00;100059.00;6220406;23;20040;-87
2023/12/05 11:07:21;;;;;;;21.55;11.63;;;;;;;3.37;100.00;100053.06;6219315;23;20012;-87
2023/12/05 11:09:49;;;;;;;21.73;10.50;;;;;;;3.43;100.00;100054.19;6219471;23;20374;-87
2023/12/05 11:12:18;;;;;;;21.33;11.15;;;;;;;3.43;100.00;100063.03;6246019;23;20079;-87
2023/12/05 11:14:55;;;;;;;25.58;10.43;;;;;;;3.45;100.00;100069.03;6219439;23;20004;-87
2023/12/05 11:17:30;;;;;;;18.17;10.18;;;;;;;3.47;100.00;100074.22;6246760;23;20000;-87
2023/12/05 11:20:36;;;;;;;17.43;9.73;;;;;;;3.51;100.00;100075.50;6245168;23;20106;-87
2023/12/05 11:23:30;;;;;;;16.95;9.05;;;;;;;3.49;100.00;100080.25;6175469;23;20019;-87
2023/12/05 11:26:31;;;;;;;19.88;9.63;;;;;;;3.53;100.00;100084.22;6219192;23;20537;-87
2023/12/05 11:29:04;;;;;;;15.82;8.38;;;;;;;3.56;100.00;100083.84;6248331;23;20414;-87
2023/12/05 11:31:54;;;;;;;14.65;7.97;;;;;;;3.56;100.00;100091.03;6220786;23;20008;-87
2023/12/05 11:34:41;;;;;;;14.07;7.53;;;;;;;3.43;100.00;100079.13;6221543;23;20358;-87
2023/12/05 11:37:42;;;;;;;15.15;8.43;;;;;;;3.41;100.00;100083.00;6221758;23;20015;-87
2023/12/05 11:40:11;;;;;;;16.38;8.60;;;;;;;3.36;100.00;100088.13;6221723;23;20090;-86
2023/12/05 11:42:39;;;;;;;16.67;8.15;;;;;;;3.37;100.00;100100.53;6196624;23;20093;-86
2023/12/05 11:45:34;;;;;;;;;;;;;;;;;;;;;
2023/12/05 11:48:09;;;;;;;15.80;8.80;;;;;;;3.27;100.00;100098.94;6248438;23;20365;-85
2023/12/05 11:50:41;;;;;;;14.93;7.95;;;;;;;3.30;100.00;100111.16;6221458;23;20023;-87
2023/12/05 11:53:08;;;;;;;17.27;8.40;;;;;;;3.24;100.00;100107.34;6221117;23;20012;-88
2023/12/05 11:55:46;;;;;;;16.83;8.55;;;;;;;3.20;100.00;100108.72;6248293;23;20032;-86
2023/12/05 11:58:31;;;;;;;15.32;7.72;;;;;;;3.28;100.00;100114.00;6222083;23;20008;-87
2023/12/05 12:01:34;;;;;;;13.17;7.03;;;;;;;3.33;100.00;100129.53;6222151;23;20004;-86
2023/12/05 12:04:02;;;;;;;14.63;7.50;;;;;;;3.17;100.00;100119.84;6204613;23;20019;-86
2023/12/05 12:06:36;;;;;;;13.48;7.50;;;;;;;3.17;100.00;100122.50;6249704;23;20011;-86
2023/12/05 12:09:02;;;;;;;14.73;8.02;;;;;;;3.08;100.00;100123.63;6247937;23;20078;-86
2023/12/05 12:11:28;;;;;;;18.58;9.35;;;;;;;3.07;100.00;100116.59;6247440;23;20008;-86
2023/12/05 12:13:58;;;;;;;23.63;10.97;;;;;;;3.06;100.00;100131.84;6220970;23;20014;-86